Terminal Aerodrome Forecast
Issued by NWS

Home | Current Version | Previous Version | Text Only | Print | Product List | Glossary On
Versions: 1 2 3 4 5 6 7 8 9 10 11 12 13 14 15 16 17 18 19 20 21
000
FTUS45 KABQ 311127
TAFTCC
TAF
KTCC 311127Z 3112/0112 VRB06KT P6SM VCSH SCT025 BKN050
      TEMPO 3112/3114 -SHRA BKN025
     FM311400 12006KT P6SM BKN050
     FM311700 15007KT P6SM SCT070 SCT120
     FM312300 16010KT P6SM VCTS BKN070CB
     FM010300 13008KT P6SM VCSH BKN100=

USA.gov is the U.S. government's official web portal to all federal, state and local government web resources and services.